createdAt,value
2022-08-16T00:01:24.377Z,99.90
2022-08-16T00:03:52.763Z,99.90
2022-08-16T00:06:19.850Z,99.90
2022-08-16T00:08:48.146Z,99.90
2022-08-16T00:11:16.584Z,99.90
2022-08-16T00:13:53.480Z,99.90
2022-08-16T00:17:05.887Z,99.90
2022-08-16T00:19:22.566Z,99.90
2022-08-16T00:21:53.377Z,99.90
2022-08-16T00:24:31.322Z,99.90
2022-08-16T00:27:01.068Z,99.90
2022-08-16T00:29:29.636Z,99.90
2022-08-16T00:32:01.073Z,99.90
2022-08-16T00:34:44.526Z,99.90
2022-08-16T00:37:24.497Z,99.90
2022-08-16T00:39:57.747Z,99.90
2022-08-16T00:42:31.984Z,99.90
2022-08-16T00:45:13.634Z,99.90
2022-08-16T00:47:48.934Z,99.90
2022-08-16T00:50:20.374Z,99.90
2022-08-16T00:52:50.899Z,99.90
2022-08-16T00:55:24.399Z,99.90
2022-08-16T00:58:00.076Z,99.90
2022-08-16T01:00:32.337Z,99.90
2022-08-16T01:03:05.650Z,99.90
2022-08-16T01:05:33.091Z,99.90
2022-08-16T01:08:00.924Z,99.90
2022-08-16T01:10:32.393Z,99.90
2022-08-16T01:13:15.068Z,99.90
2022-08-16T01:15:52.698Z,99.90
2022-08-16T01:18:40.352Z,99.90
2022-08-16T01:21:33.611Z,99.90
2022-08-16T01:24:53.626Z,99.90
2022-08-16T01:27:23.935Z,99.90
2022-08-16T01:30:20.318Z,99.90
2022-08-16T01:33:01.553Z,99.90
2022-08-16T01:36:02.441Z,99.90
2022-08-16T01:38:48.972Z,99.90
2022-08-16T01:41:25.932Z,99.90
2022-08-16T01:44:01.467Z,99.90
2022-08-16T01:46:39.956Z,99.90
2022-08-16T01:49:42.935Z,99.90
2022-08-16T01:52:29.635Z,99.90
2022-08-16T01:54:58.319Z,99.90
2022-08-16T01:57:28.332Z,99.90
2022-08-16T01:59:59.000Z,99.90
2022-08-16T02:02:28.794Z,99.90
2022-08-16T02:04:57.421Z,99.90
2022-08-16T02:07:25.441Z,99.90
2022-08-16T02:09:58.638Z,99.90
2022-08-16T02:12:50.529Z,99.90
2022-08-16T02:15:16.771Z,99.90
2022-08-16T02:17:43.697Z,99.90
2022-08-16T02:20:12.319Z,99.90
2022-08-16T02:22:39.704Z,99.90
2022-08-16T02:25:14.757Z,99.90
2022-08-16T02:27:44.135Z,99.90
2022-08-16T02:30:37.309Z,99.90
2022-08-16T02:33:04.662Z,99.90
2022-08-16T02:35:33.219Z,99.90
2022-08-16T02:38:01.773Z,99.90
2022-08-16T02:40:36.738Z,99.90
2022-08-16T02:43:04.384Z,99.90
2022-08-16T02:45:31.872Z,99.90
2022-08-16T02:48:01.410Z,99.90
2022-08-16T02:51:03.003Z,99.90
2022-08-16T02:53:34.806Z,99.90
2022-08-16T02:56:02.381Z,99.90
2022-08-16T02:58:29.367Z,99.90
2022-08-16T03:00:57.829Z,99.90
2022-08-16T03:03:26.536Z,99.90
2022-08-16T03:05:53.909Z,99.90
2022-08-16T03:08:50.921Z,99.90
2022-08-16T03:11:16.792Z,99.90
2022-08-16T03:13:51.210Z,99.90
2022-08-16T03:16:38.312Z,99.90
2022-08-16T03:19:08.359Z,99.90
2022-08-16T03:21:38.159Z,99.90
2022-08-16T03:24:27.627Z,99.90
2022-08-16T03:26:57.871Z,99.90
2022-08-16T03:29:27.410Z,99.90
2022-08-16T03:31:59.201Z,99.90
2022-08-16T03:34:27.454Z,99.90
2022-08-16T03:36:54.932Z,99.90
2022-08-16T03:39:22.156Z,99.90
2022-08-16T03:41:51.285Z,99.90
2022-08-16T03:44:44.991Z,99.90
2022-08-16T03:47:18.685Z,99.90
2022-08-16T03:49:51.961Z,99.90
2022-08-16T03:52:23.291Z,99.90
2022-08-16T03:54:53.371Z,99.90
2022-08-16T03:57:32.061Z,99.90
2022-08-16T04:00:36.087Z,99.90
2022-08-16T04:03:09.063Z,99.90
2022-08-16T04:05:43.988Z,99.90
2022-08-16T04:08:23.021Z,99.90
2022-08-16T04:10:52.653Z,99.90
2022-08-16T04:13:20.198Z,99.90
2022-08-16T04:15:48.078Z,99.90
2022-08-16T04:18:19.757Z,99.90
2022-08-16T04:20:46.559Z,99.90
2022-08-16T04:23:13.728Z,99.90
2022-08-16T04:25:40.716Z,99.90
2022-08-16T04:28:54.562Z,99.90
2022-08-16T04:30:54.746Z,99.90
2022-08-16T04:33:27.168Z,99.90
2022-08-16T04:35:56.869Z,99.90
2022-08-16T04:38:23.948Z,99.90
2022-08-16T04:40:51.916Z,99.90
2022-08-16T04:43:21.262Z,99.90
2022-08-16T04:46:00.264Z,99.90
2022-08-16T04:48:28.366Z,99.90
2022-08-16T04:51:00.221Z,99.90
2022-08-16T04:53:28.748Z,99.90
2022-08-16T04:55:55.961Z,99.90
2022-08-16T04:58:45.191Z,99.90
2022-08-16T05:01:10.044Z,99.90
2022-08-16T05:03:41.784Z,99.90
2022-08-16T05:06:09.607Z,99.90
2022-08-16T05:08:37.813Z,99.90
2022-08-16T05:11:08.504Z,99.90
2022-08-16T05:13:41.560Z,99.90
2022-08-16T05:16:20.226Z,99.90
2022-08-16T05:18:53.942Z,99.90
2022-08-16T05:21:24.374Z,99.90
2022-08-16T05:23:58.424Z,99.90
2022-08-16T05:26:30.205Z,99.90
2022-08-16T05:28:58.515Z,99.90
2022-08-16T05:31:29.896Z,99.90
2022-08-16T05:34:03.662Z,99.90
2022-08-16T05:36:36.599Z,99.90
2022-08-16T05:39:09.613Z,99.90
2022-08-16T05:41:45.201Z,99.90
2022-08-16T05:44:23.828Z,99.90
2022-08-16T05:46:56.691Z,99.90
2022-08-16T05:49:36.970Z,99.90
2022-08-16T05:52:10.638Z,99.90
2022-08-16T05:54:46.024Z,99.90
2022-08-16T05:57:15.231Z,99.90
2022-08-16T05:59:42.131Z,99.90
2022-08-16T06:02:10.121Z,99.90
2022-08-16T06:04:37.777Z,99.90
2022-08-16T06:07:10.420Z,99.90
2022-08-16T06:09:51.302Z,99.90
2022-08-16T06:12:27.940Z,99.90
2022-08-16T06:14:59.181Z,99.90
2022-08-16T06:17:42.789Z,99.90
2022-08-16T06:20:25.480Z,99.90
2022-08-16T06:22:57.859Z,99.90
2022-08-16T06:25:36.489Z,99.90
2022-08-16T06:28:10.117Z,99.90
2022-08-16T06:30:43.286Z,99.90
2022-08-16T06:33:12.561Z,99.90
2022-08-16T06:35:41.463Z,97.80
2022-08-16T06:38:32.428Z,98.60
2022-08-16T06:40:56.651Z,97.90
2022-08-16T06:43:27.679Z,99.00
2022-08-16T06:45:54.889Z,98.00
2022-08-16T06:48:32.477Z,95.40
2022-08-16T06:51:00.906Z,99.60
2022-08-16T06:53:29.730Z,99.90
2022-08-16T06:55:58.643Z,99.30
2022-08-16T06:58:31.513Z,99.90
2022-08-16T07:01:00.482Z,94.50
2022-08-16T07:03:32.813Z,86.90
2022-08-16T07:06:15.855Z,93.90
2022-08-16T07:08:43.339Z,90.90
2022-08-16T07:11:10.861Z,94.60
2022-08-16T07:16:27.820Z,96.20
2022-08-16T07:18:59.156Z,99.90
2022-08-16T07:21:45.641Z,98.00
2022-08-16T07:24:30.762Z,97.80
2022-08-16T07:27:00.753Z,99.90
2022-08-16T07:29:31.778Z,99.90
2022-08-16T07:32:00.796Z,99.90
2022-08-16T07:34:35.043Z,99.90
2022-08-16T07:37:10.813Z,99.90
2022-08-16T07:39:43.227Z,99.90
2022-08-16T07:42:26.157Z,99.90
2022-08-16T07:44:58.296Z,99.90
2022-08-16T07:47:31.463Z,99.90
2022-08-16T07:49:59.902Z,99.90
2022-08-16T07:52:29.776Z,99.90
2022-08-16T07:54:57.996Z,99.90
2022-08-16T07:57:25.411Z,99.90
2022-08-16T07:59:53.339Z,99.90
2022-08-16T08:02:27.441Z,99.90
2022-08-16T08:04:56.483Z,99.90
2022-08-16T08:07:28.276Z,99.90
2022-08-16T08:09:56.847Z,99.90
2022-08-16T08:12:31.343Z,99.90
2022-08-16T08:15:00.542Z,99.90
2022-08-16T08:17:42.830Z,99.90
2022-08-16T08:20:23.873Z,99.90
2022-08-16T08:23:00.641Z,99.90
2022-08-16T08:25:54.324Z,99.90
2022-08-16T08:28:19.988Z,99.90
2022-08-16T08:30:51.950Z,99.90
2022-08-16T08:33:28.173Z,99.90
2022-08-16T08:36:00.640Z,99.90
2022-08-16T08:38:45.020Z,99.90
2022-08-16T08:41:18.268Z,99.90
2022-08-16T08:43:46.898Z,99.90
2022-08-16T08:46:21.769Z,99.90
2022-08-16T08:48:59.397Z,99.90
2022-08-16T08:51:31.953Z,99.90
2022-08-16T08:54:06.729Z,99.90
2022-08-16T08:56:35.214Z,99.90
2022-08-16T08:59:06.106Z,99.90
2022-08-16T09:01:42.905Z,99.90
2022-08-16T09:04:23.358Z,99.90
2022-08-16T09:06:50.814Z,99.90
2022-08-16T09:09:17.707Z,99.90
2022-08-16T09:11:52.433Z,99.90
2022-08-16T09:14:25.486Z,99.90
2022-08-16T09:17:01.461Z,99.90
2022-08-16T09:19:34.027Z,99.90
2022-08-16T09:22:01.480Z,99.90
2022-08-16T09:24:51.934Z,99.90
2022-08-16T09:27:15.302Z,99.90
2022-08-16T09:29:45.382Z,99.90
2022-08-16T09:32:28.568Z,99.90
2022-08-16T09:34:59.438Z,99.90
2022-08-16T09:37:29.834Z,99.90
2022-08-16T09:39:59.687Z,99.90
2022-08-16T09:42:29.129Z,99.90
2022-08-16T09:45:10.772Z,99.90
2022-08-16T09:47:57.012Z,99.90
2022-08-16T09:50:37.246Z,99.90
2022-08-16T09:53:15.377Z,99.90
2022-08-16T09:55:49.640Z,99.90
2022-08-16T09:58:41.565Z,99.90
2022-08-16T10:01:11.119Z,99.90
2022-08-16T10:04:02.276Z,99.90
2022-08-16T10:06:33.201Z,99.90
2022-08-16T10:09:05.782Z,99.90
2022-08-16T10:11:54.253Z,99.90
2022-08-16T10:14:24.862Z,99.90
2022-08-16T10:17:02.743Z,99.90
2022-08-16T10:19:32.778Z,99.90
2022-08-16T10:22:04.696Z,99.90
2022-08-16T10:24:33.593Z,99.90
2022-08-16T10:27:25.283Z,99.90
2022-08-16T10:30:01.493Z,99.90
2022-08-16T10:32:34.563Z,99.90
2022-08-16T10:35:03.513Z,99.90
2022-08-16T10:37:35.818Z,99.90
2022-08-16T10:40:06.507Z,99.90
2022-08-16T10:42:53.394Z,99.90
2022-08-16T10:45:21.083Z,99.90
2022-08-16T10:48:00.513Z,99.90
2022-08-16T10:50:32.541Z,99.90
2022-08-16T10:53:05.704Z,99.90
2022-08-16T10:55:42.923Z,99.90
2022-08-16T10:58:14.115Z,99.90
2022-08-16T11:00:46.209Z,99.90
2022-08-16T11:06:05.975Z,99.90
2022-08-16T11:08:39.688Z,99.90
2022-08-16T11:11:12.792Z,99.90
2022-08-16T11:14:10.909Z,99.90
2022-08-16T11:19:23.278Z,99.90
2022-08-16T11:24:43.237Z,99.90
2022-08-16T11:27:19.701Z,99.90
2022-08-16T11:29:47.022Z,99.90
2022-08-16T11:32:13.877Z,99.90
2022-08-16T11:35:09.936Z,99.90
2022-08-16T11:38:06.177Z,99.90
2022-08-16T11:40:32.263Z,99.90
2022-08-16T11:43:01.595Z,99.90
2022-08-16T11:45:33.692Z,99.90
2022-08-16T11:48:03.328Z,99.90
2022-08-16T11:50:33.700Z,99.90
2022-08-16T11:53:06.079Z,99.90
2022-08-16T11:55:38.070Z,99.90
2022-08-16T11:58:07.763Z,99.90
2022-08-16T12:00:50.461Z,99.90
2022-08-16T12:03:31.475Z,99.90
2022-08-16T12:06:11.008Z,99.90
2022-08-16T12:08:53.295Z,99.90
2022-08-16T12:11:22.769Z,99.90
2022-08-16T12:13:53.682Z,99.90
2022-08-16T12:16:21.078Z,99.90
2022-08-16T12:21:19.948Z,99.90
2022-08-16T12:23:47.123Z,99.90
2022-08-16T12:26:13.995Z,98.10
2022-08-16T12:28:56.148Z,97.20
2022-08-16T12:31:24.117Z,97.80
2022-08-16T12:33:54.210Z,97.60
2022-08-16T12:36:23.306Z,96.70
2022-08-16T12:38:50.869Z,95.80
2022-08-16T12:41:24.588Z,95.40
2022-08-16T12:43:53.075Z,95.70
2022-08-16T12:46:25.113Z,96.30
2022-08-16T12:48:58.005Z,94.30
2022-08-16T12:51:55.766Z,95.20
2022-08-16T12:54:19.680Z,96.30
2022-08-16T12:56:46.869Z,95.60
2022-08-16T12:59:19.906Z,94.90
2022-08-16T13:01:47.976Z,95.40
2022-08-16T13:04:20.946Z,94.10
2022-08-16T13:06:52.019Z,93.60
2022-08-16T13:09:26.657Z,91.70
2022-08-16T13:12:18.937Z,90.90
2022-08-16T13:14:47.212Z,87.60
2022-08-16T13:17:20.913Z,87.20
2022-08-16T13:22:50.515Z,84.40
2022-08-16T13:25:22.762Z,84.20
2022-08-16T13:28:03.459Z,84.70
2022-08-16T13:30:41.343Z,84.60
2022-08-16T13:33:24.784Z,83.70
2022-08-16T13:35:55.944Z,85.60
2022-08-16T13:38:25.002Z,87.30
2022-08-16T13:40:57.173Z,83.20
2022-08-16T13:43:29.001Z,82.70
2022-08-16T13:46:04.447Z,82.80
2022-08-16T13:48:42.551Z,83.60
2022-08-16T13:51:16.836Z,85.20
2022-08-16T13:53:54.260Z,83.20
2022-08-16T13:56:37.267Z,87.30
2022-08-16T13:59:19.431Z,90.40
2022-08-16T14:01:55.140Z,91.10
2022-08-16T14:04:26.793Z,91.30
2022-08-16T14:06:54.884Z,91.10
2022-08-16T14:09:21.893Z,90.30
2022-08-16T14:11:49.558Z,87.50
2022-08-16T14:14:29.170Z,89.20
2022-08-16T14:17:02.461Z,81.20
2022-08-16T14:19:30.491Z,76.80
2022-08-16T14:22:13.989Z,78.70
2022-08-16T14:24:45.355Z,77.50
2022-08-16T14:27:19.636Z,77.80
2022-08-16T14:29:49.831Z,77.10
2022-08-16T14:32:32.667Z,70.80
2022-08-16T14:35:04.063Z,74.60
2022-08-16T14:37:32.062Z,78.50
2022-08-16T14:40:00.185Z,77.20
2022-08-16T14:42:27.500Z,72.10
2022-08-16T14:44:54.462Z,68.70
2022-08-16T14:47:22.751Z,68.70
2022-08-16T14:49:52.481Z,69.20
2022-08-16T14:52:44.632Z,66.30
2022-08-16T14:55:09.735Z,66.50
2022-08-16T14:57:39.614Z,66.40
2022-08-16T15:00:11.803Z,61.90
2022-08-16T15:02:40.414Z,60.30
2022-08-16T15:05:09.579Z,58.80
2022-08-16T15:07:36.917Z,55.60
2022-08-16T15:10:21.506Z,57.70
2022-08-16T15:12:54.298Z,59.70
2022-08-16T15:15:24.726Z,57.50
2022-08-16T15:17:55.927Z,57.10
2022-08-16T15:20:26.726Z,58.30
2022-08-16T15:22:55.039Z,58.20
2022-08-16T15:26:02.975Z,57.80
2022-08-16T15:28:32.827Z,57.30
2022-08-16T15:31:06.460Z,58.10
2022-08-16T15:33:39.355Z,58.90
2022-08-16T15:36:12.221Z,58.20
2022-08-16T15:39:02.517Z,58.40
2022-08-16T15:41:42.699Z,58.40
2022-08-16T15:44:21.424Z,59.00
2022-08-16T15:46:55.094Z,58.60
2022-08-16T15:49:25.282Z,58.50
2022-08-16T15:52:15.027Z,60.50
2022-08-16T15:54:53.679Z,61.30
2022-08-16T15:57:25.596Z,62.40
2022-08-16T15:59:55.902Z,59.80
2022-08-16T16:02:30.375Z,63.00
2022-08-16T16:05:04.357Z,63.00
2022-08-16T16:07:34.128Z,62.90
2022-08-16T16:10:05.885Z,62.00
2022-08-16T16:12:54.741Z,61.40
2022-08-16T16:15:30.677Z,60.10
2022-08-16T16:17:58.821Z,59.20
2022-08-16T16:20:27.995Z,59.20
2022-08-16T16:23:04.835Z,62.90
2022-08-16T16:25:38.655Z,60.70
2022-08-16T16:28:12.724Z,60.90
2022-08-16T16:30:56.962Z,59.40
2022-08-16T16:33:29.219Z,60.30
2022-08-16T16:35:58.326Z,59.50
2022-08-16T16:38:30.646Z,60.30
2022-08-16T16:40:59.471Z,63.50
2022-08-16T16:43:31.841Z,64.50
2022-08-16T16:46:00.380Z,66.20
2022-08-16T16:48:34.534Z,67.20
2022-08-16T16:51:10.138Z,68.60
2022-08-16T16:53:41.168Z,69.90
2022-08-16T16:56:19.579Z,70.40
2022-08-16T16:58:56.693Z,72.30
2022-08-16T17:02:00.239Z,72.70
2022-08-16T17:04:32.005Z,76.20
2022-08-16T17:07:01.695Z,77.60
2022-08-16T17:09:29.512Z,78.70
2022-08-16T17:11:57.101Z,80.60
2022-08-16T17:14:33.035Z,82.20
2022-08-16T17:17:04.219Z,86.40
2022-08-16T17:19:32.115Z,87.10
2022-08-16T17:22:00.236Z,89.80
2022-08-16T17:24:39.278Z,91.20
2022-08-16T17:27:08.544Z,92.40
2022-08-16T17:29:42.664Z,92.90
2022-08-16T17:32:46.452Z,92.90
2022-08-16T17:35:10.292Z,94.20
2022-08-16T17:37:48.868Z,95.20
2022-08-16T17:40:19.162Z,96.20
2022-08-16T17:42:57.022Z,97.30
2022-08-16T17:45:24.733Z,97.90
2022-08-16T17:47:51.959Z,99.00
2022-08-16T17:50:19.956Z,99.50
2022-08-16T17:52:52.693Z,99.90
2022-08-16T17:55:30.944Z,99.90
2022-08-16T17:57:58.781Z,99.90
2022-08-16T18:00:27.170Z,99.90
2022-08-16T18:02:58.177Z,99.90
2022-08-16T18:05:27.874Z,99.90
2022-08-16T18:07:55.082Z,99.90
2022-08-16T18:10:32.882Z,99.90
2022-08-16T18:13:01.730Z,99.90
2022-08-16T18:15:29.015Z,99.90
2022-08-16T18:17:55.921Z,99.90
2022-08-16T18:20:42.315Z,99.90
2022-08-16T18:23:17.778Z,99.90
2022-08-16T18:25:48.525Z,99.90
2022-08-16T18:28:16.794Z,99.90
2022-08-16T18:30:47.925Z,99.90
2022-08-16T18:33:18.126Z,99.90
2022-08-16T18:35:45.670Z,99.90
2022-08-16T18:38:12.869Z,99.90
2022-08-16T18:40:40.393Z,99.90
2022-08-16T18:43:13.754Z,99.90
2022-08-16T18:45:42.630Z,99.90
2022-08-16T18:48:10.850Z,99.90
2022-08-16T18:51:03.819Z,99.90
2022-08-16T18:53:28.012Z,99.90
2022-08-16T18:55:57.648Z,99.90
2022-08-16T18:58:25.774Z,99.90
2022-08-16T19:00:56.613Z,99.90
2022-08-16T19:03:30.409Z,99.90
2022-08-16T19:05:59.830Z,99.90
2022-08-16T19:08:26.917Z,99.90
2022-08-16T19:10:54.695Z,99.90
2022-08-16T19:13:25.013Z,99.90
2022-08-16T19:15:54.684Z,99.90
2022-08-16T19:18:21.922Z,99.90
2022-08-16T19:20:50.018Z,99.90
2022-08-16T19:23:20.647Z,99.90
2022-08-16T19:25:53.173Z,99.90
2022-08-16T19:28:49.451Z,99.90
2022-08-16T19:31:15.527Z,99.90
2022-08-16T19:33:53.895Z,99.90
2022-08-16T19:36:32.427Z,99.90
2022-08-16T19:39:16.590Z,99.90
2022-08-16T19:41:46.606Z,99.90
2022-08-16T19:44:21.462Z,99.90
2022-08-16T19:46:49.281Z,99.90
2022-08-16T19:49:17.011Z,99.90
2022-08-16T19:51:48.109Z,99.90
2022-08-16T19:54:15.847Z,99.90
2022-08-16T19:56:42.691Z,99.90
2022-08-16T19:59:19.283Z,99.90
2022-08-16T20:01:50.222Z,99.90
2022-08-16T20:04:17.286Z,99.90
2022-08-16T20:06:44.329Z,99.90
2022-08-16T20:09:14.781Z,99.90
2022-08-16T20:11:43.475Z,99.90
2022-08-16T20:14:24.921Z,99.90
2022-08-16T20:16:55.729Z,99.90
2022-08-16T20:19:23.213Z,99.90
2022-08-16T20:21:50.138Z,99.90
2022-08-16T20:24:33.505Z,99.90
2022-08-16T20:27:02.265Z,99.90
2022-08-16T20:29:29.367Z,99.90
2022-08-16T20:31:56.491Z,99.90
2022-08-16T20:34:23.389Z,99.90
2022-08-16T20:36:50.203Z,99.90
2022-08-16T20:39:17.099Z,99.90
2022-08-16T20:41:44.320Z,99.90
2022-08-16T20:44:12.741Z,99.90
2022-08-16T20:46:40.301Z,99.90
2022-08-16T20:49:09.039Z,99.90
2022-08-16T20:51:46.780Z,99.90
2022-08-16T20:54:16.985Z,99.90
2022-08-16T20:56:43.839Z,99.90
2022-08-16T20:59:10.690Z,99.90
2022-08-16T21:01:46.713Z,99.90
2022-08-16T21:04:22.978Z,99.90
2022-08-16T21:06:54.144Z,99.90
2022-08-16T21:09:23.322Z,99.90
2022-08-16T21:11:52.800Z,99.90
2022-08-16T21:14:19.782Z,99.90
2022-08-16T21:16:46.615Z,99.90
2022-08-16T21:19:13.562Z,99.90
2022-08-16T21:21:40.387Z,99.90
2022-08-16T21:24:07.284Z,99.90
2022-08-16T21:26:38.820Z,99.90
2022-08-16T21:29:07.696Z,99.90
2022-08-16T21:31:40.630Z,99.90
2022-08-16T21:34:08.642Z,99.90
2022-08-16T21:36:36.680Z,99.90
2022-08-16T21:39:05.731Z,99.90
2022-08-16T21:41:33.615Z,99.90
2022-08-16T21:44:00.460Z,99.90
2022-08-16T21:46:27.314Z,99.90
2022-08-16T21:48:54.200Z,99.90
2022-08-16T21:51:21.323Z,99.90
2022-08-16T21:53:48.601Z,99.90
2022-08-16T21:56:17.199Z,99.90
2022-08-16T21:58:45.885Z,99.90
2022-08-16T22:01:13.068Z,99.90
2022-08-16T22:03:39.897Z,99.90
2022-08-16T22:06:13.394Z,99.90
2022-08-16T22:08:49.909Z,99.90
2022-08-16T22:11:21.990Z,99.90
2022-08-16T22:13:57.997Z,99.90
2022-08-16T22:16:32.478Z,99.90
2022-08-16T22:19:00.720Z,99.90
2022-08-16T22:21:28.201Z,99.90
2022-08-16T22:23:57.553Z,99.90
2022-08-16T22:26:30.357Z,99.90
2022-08-16T22:29:03.401Z,99.90
2022-08-16T22:31:31.157Z,99.90
2022-08-16T22:33:58.167Z,99.90
2022-08-16T22:36:28.187Z,99.90
2022-08-16T22:39:00.246Z,99.90
2022-08-16T22:41:28.797Z,99.90
2022-08-16T22:43:56.207Z,99.90
2022-08-16T22:46:23.257Z,99.90
2022-08-16T22:48:50.995Z,99.90
2022-08-16T22:51:19.330Z,99.90
2022-08-16T22:53:46.300Z,99.90
2022-08-16T22:56:13.556Z,99.90
2022-08-16T22:58:40.475Z,99.90
2022-08-16T23:01:09.810Z,99.90
2022-08-16T23:03:37.532Z,99.90
2022-08-16T23:06:05.555Z,99.90
2022-08-16T23:08:40.923Z,99.90
2022-08-16T23:11:19.470Z,99.90
2022-08-16T23:13:52.514Z,99.90
2022-08-16T23:16:33.645Z,99.90
2022-08-16T23:19:09.819Z,99.90
2022-08-16T23:21:39.039Z,99.90
2022-08-16T23:24:07.431Z,99.90
2022-08-16T23:26:45.206Z,99.90
2022-08-16T23:29:24.750Z,99.90
2022-08-16T23:32:10.837Z,99.90
2022-08-16T23:34:37.809Z,99.90
2022-08-16T23:37:05.388Z,99.90
2022-08-16T23:39:32.826Z,99.90
2022-08-16T23:41:59.703Z,99.90
2022-08-16T23:44:56.186Z,99.90
2022-08-16T23:47:13.400Z,99.90
2022-08-16T23:49:56.467Z,99.90
2022-08-16T23:52:42.369Z,99.90
2022-08-16T23:55:16.432Z,99.90
2022-08-16T23:57:44.404Z,99.90
